sensor_id;sensor_type;location;lat;lon;timestamp;P1;durP1;ratioP1;P2;durP2;ratioP2
38023;SDS011;23834;48.080;11.682;2022-09-09T00:01:59;1.03;;;0.90;;
38023;SDS011;23834;48.080;11.682;2022-09-09T00:04:26;1.10;;;1.00;;
38023;SDS011;23834;48.080;11.682;2022-09-09T00:09:21;1.02;;;1.02;;
38023;SDS011;23834;48.080;11.682;2022-09-09T00:11:54;1.10;;;1.10;;
38023;SDS011;23834;48.080;11.682;2022-09-09T00:14:27;1.00;;;1.00;;
38023;SDS011;23834;48.080;11.682;2022-09-09T00:16:56;0.97;;;0.97;;
38023;SDS011;23834;48.080;11.682;2022-09-09T00:19:24;0.80;;;0.80;;
38023;SDS011;23834;48.080;11.682;2022-09-09T00:22:05;1.00;;;0.90;;
38023;SDS011;23834;48.080;11.682;2022-09-09T00:27:02;1.30;;;1.07;;
38023;SDS011;23834;48.080;11.682;2022-09-09T00:29:51;0.87;;;0.87;;
38023;SDS011;23834;48.080;11.682;2022-09-09T00:32:18;0.97;;;0.87;;
38023;SDS011;23834;48.080;11.682;2022-09-09T00:34:48;1.00;;;1.00;;
38023;SDS011;23834;48.080;11.682;2022-09-09T00:37:14;0.80;;;0.80;;
38023;SDS011;23834;48.080;11.682;2022-09-09T00:39:44;1.03;;;1.03;;
38023;SDS011;23834;48.080;11.682;2022-09-09T00:44:37;1.20;;;1.00;;
38023;SDS011;23834;48.080;11.682;2022-09-09T00:52:18;1.00;;;1.00;;
38023;SDS011;23834;48.080;11.682;2022-09-09T00:57:25;0.90;;;0.90;;
38023;SDS011;23834;48.080;11.682;2022-09-09T00:59:52;1.30;;;1.20;;
38023;SDS011;23834;48.080;11.682;2022-09-09T01:08:05;1.00;;;1.00;;
38023;SDS011;23834;48.080;11.682;2022-09-09T01:13:08;1.20;;;1.10;;
38023;SDS011;23834;48.080;11.682;2022-09-09T01:15:38;0.90;;;0.70;;
38023;SDS011;23834;48.080;11.682;2022-09-09T01:18:10;1.00;;;1.00;;
38023;SDS011;23834;48.080;11.682;2022-09-09T01:26:12;1.70;;;0.80;;
38023;SDS011;23834;48.080;11.682;2022-09-09T01:28:39;1.00;;;1.00;;
38023;SDS011;23834;48.080;11.682;2022-09-09T01:31:05;0.87;;;0.87;;
38023;SDS011;23834;48.080;11.682;2022-09-09T01:33:31;1.33;;;1.23;;
38023;SDS011;23834;48.080;11.682;2022-09-09T01:36:07;0.80;;;0.80;;
38023;SDS011;23834;48.080;11.682;2022-09-09T01:38:34;1.07;;;0.97;;
38023;SDS011;23834;48.080;11.682;2022-09-09T01:40:59;1.00;;;1.00;;
38023;SDS011;23834;48.080;11.682;2022-09-09T01:43:25;1.00;;;1.00;;
38023;SDS011;23834;48.080;11.682;2022-09-09T01:45:53;0.90;;;0.90;;
38023;SDS011;23834;48.080;11.682;2022-09-09T01:48:19;1.03;;;1.03;;
38023;SDS011;23834;48.080;11.682;2022-09-09T01:50:45;0.90;;;0.90;;
38023;SDS011;23834;48.080;11.682;2022-09-09T01:53:11;1.00;;;1.00;;
38023;SDS011;23834;48.080;11.682;2022-09-09T01:55:37;1.57;;;0.80;;
38023;SDS011;23834;48.080;11.682;2022-09-09T02:00:28;0.90;;;0.90;;
38023;SDS011;23834;48.080;11.682;2022-09-09T02:03:00;0.93;;;0.93;;
38023;SDS011;23834;48.080;11.682;2022-09-09T02:05:31;0.90;;;0.90;;
38023;SDS011;23834;48.080;11.682;2022-09-09T02:11:16;0.70;;;0.70;;
38023;SDS011;23834;48.080;11.682;2022-09-09T02:13:21;0.97;;;0.97;;
38023;SDS011;23834;48.080;11.682;2022-09-09T02:15:49;0.80;;;0.80;;
38023;SDS011;23834;48.080;11.682;2022-09-09T02:18:18;1.10;;;1.00;;
38023;SDS011;23834;48.080;11.682;2022-09-09T02:20:45;0.70;;;0.70;;
38023;SDS011;23834;48.080;11.682;2022-09-09T02:23:11;1.00;;;1.00;;
38023;SDS011;23834;48.080;11.682;2022-09-09T02:25:37;0.83;;;0.83;;
38023;SDS011;23834;48.080;11.682;2022-09-09T02:28:05;1.27;;;1.03;;
38023;SDS011;23834;48.080;11.682;2022-09-09T02:30:32;0.80;;;0.80;;
38023;SDS011;23834;48.080;11.682;2022-09-09T02:32:59;1.33;;;1.00;;
38023;SDS011;23834;48.080;11.682;2022-09-09T02:35:27;1.17;;;1.07;;
38023;SDS011;23834;48.080;11.682;2022-09-09T02:37:55;0.80;;;0.80;;
38023;SDS011;23834;48.080;11.682;2022-09-09T02:40:21;0.80;;;0.80;;
38023;SDS011;23834;48.080;11.682;2022-09-09T02:42:47;0.87;;;0.87;;
38023;SDS011;23834;48.080;11.682;2022-09-09T02:45:14;1.00;;;0.90;;
38023;SDS011;23834;48.080;11.682;2022-09-09T02:47:43;1.03;;;1.03;;
38023;SDS011;23834;48.080;11.682;2022-09-09T02:50:48;1.20;;;1.10;;
38023;SDS011;23834;48.080;11.682;2022-09-09T02:53:19;1.00;;;1.00;;
38023;SDS011;23834;48.080;11.682;2022-09-09T02:58:11;0.88;;;0.80;;
38023;SDS011;23834;48.080;11.682;2022-09-09T03:00:38;0.93;;;0.90;;
38023;SDS011;23834;48.080;11.682;2022-09-09T03:03:04;0.87;;;0.87;;
38023;SDS011;23834;48.080;11.682;2022-09-09T03:05:29;1.10;;;1.10;;
38023;SDS011;23834;48.080;11.682;2022-09-09T03:07:55;0.90;;;0.90;;
38023;SDS011;23834;48.080;11.682;2022-09-09T03:10:20;0.90;;;0.90;;
38023;SDS011;23834;48.080;11.682;2022-09-09T03:12:45;0.90;;;0.90;;
38023;SDS011;23834;48.080;11.682;2022-09-09T03:15:10;0.97;;;0.97;;
38023;SDS011;23834;48.080;11.682;2022-09-09T03:17:36;0.90;;;0.90;;
38023;SDS011;23834;48.080;11.682;2022-09-09T03:20:02;0.93;;;0.83;;
38023;SDS011;23834;48.080;11.682;2022-09-09T03:22:27;0.90;;;0.90;;
38023;SDS011;23834;48.080;11.682;2022-09-09T03:24:52;1.00;;;1.00;;
38023;SDS011;23834;48.080;11.682;2022-09-09T03:27:18;0.70;;;0.70;;
38023;SDS011;23834;48.080;11.682;2022-09-09T03:29:44;0.80;;;0.80;;
38023;SDS011;23834;48.080;11.682;2022-09-09T03:32:10;0.80;;;0.80;;
38023;SDS011;23834;48.080;11.682;2022-09-09T03:34:35;0.80;;;0.80;;
38023;SDS011;23834;48.080;11.682;2022-09-09T03:37:04;1.30;;;0.90;;
38023;SDS011;23834;48.080;11.682;2022-09-09T03:39:30;0.93;;;0.83;;
38023;SDS011;23834;48.080;11.682;2022-09-09T03:41:56;0.90;;;0.80;;
38023;SDS011;23834;48.080;11.682;2022-09-09T03:44:21;1.33;;;1.10;;
38023;SDS011;23834;48.080;11.682;2022-09-09T03:46:46;0.83;;;0.83;;
38023;SDS011;23834;48.080;11.682;2022-09-09T03:49:12;0.83;;;0.83;;
38023;SDS011;23834;48.080;11.682;2022-09-09T03:51:37;0.70;;;0.70;;
38023;SDS011;23834;48.080;11.682;2022-09-09T03:54:03;0.90;;;0.90;;
38023;SDS011;23834;48.080;11.682;2022-09-09T03:56:30;0.80;;;0.80;;
38023;SDS011;23834;48.080;11.682;2022-09-09T03:58:55;0.97;;;0.87;;
38023;SDS011;23834;48.080;11.682;2022-09-09T04:01:21;0.90;;;0.80;;
38023;SDS011;23834;48.080;11.682;2022-09-09T04:03:46;1.17;;;0.77;;
38023;SDS011;23834;48.080;11.682;2022-09-09T04:06:12;0.90;;;0.90;;
38023;SDS011;23834;48.080;11.682;2022-09-09T04:08:38;0.70;;;0.70;;
38023;SDS011;23834;48.080;11.682;2022-09-09T04:11:04;0.80;;;0.80;;
38023;SDS011;23834;48.080;11.682;2022-09-09T04:13:31;0.90;;;0.90;;
38023;SDS011;23834;48.080;11.682;2022-09-09T04:15:57;0.80;;;0.80;;
38023;SDS011;23834;48.080;11.682;2022-09-09T04:18:24;0.93;;;0.93;;
38023;SDS011;23834;48.080;11.682;2022-09-09T04:20:50;2.13;;;1.20;;
38023;SDS011;23834;48.080;11.682;2022-09-09T04:23:16;0.80;;;0.80;;
38023;SDS011;23834;48.080;11.682;2022-09-09T04:25:46;1.13;;;1.00;;
38023;SDS011;23834;48.080;11.682;2022-09-09T04:28:12;0.80;;;0.80;;
38023;SDS011;23834;48.080;11.682;2022-09-09T04:30:38;0.80;;;0.80;;
38023;SDS011;23834;48.080;11.682;2022-09-09T04:33:04;0.83;;;0.83;;
38023;SDS011;23834;48.080;11.682;2022-09-09T04:35:30;0.77;;;0.77;;
38023;SDS011;23834;48.080;11.682;2022-09-09T04:37:56;0.87;;;0.87;;
38023;SDS011;23834;48.080;11.682;2022-09-09T04:40:21;0.67;;;0.67;;
38023;SDS011;23834;48.080;11.682;2022-09-09T04:42:47;1.47;;;0.90;;
38023;SDS011;23834;48.080;11.682;2022-09-09T04:45:14;1.03;;;1.03;;
38023;SDS011;23834;48.080;11.682;2022-09-09T04:47:40;0.73;;;0.73;;
38023;SDS011;23834;48.080;11.682;2022-09-09T04:50:05;0.97;;;0.87;;
38023;SDS011;23834;48.080;11.682;2022-09-09T04:52:31;0.87;;;0.80;;
38023;SDS011;23834;48.080;11.682;2022-09-09T04:54:56;1.00;;;1.00;;
38023;SDS011;23834;48.080;11.682;2022-09-09T04:57:22;0.90;;;0.90;;
38023;SDS011;23834;48.080;11.682;2022-09-09T04:59:47;0.80;;;0.80;;
38023;SDS011;23834;48.080;11.682;2022-09-09T05:02:13;1.03;;;0.90;;
38023;SDS011;23834;48.080;11.682;2022-09-09T05:04:38;0.83;;;0.83;;
38023;SDS011;23834;48.080;11.682;2022-09-09T05:07:03;1.13;;;0.73;;
38023;SDS011;23834;48.080;11.682;2022-09-09T05:09:29;0.83;;;0.83;;
38023;SDS011;23834;48.080;11.682;2022-09-09T05:11:54;0.93;;;0.80;;
38023;SDS011;23834;48.080;11.682;2022-09-09T05:14:20;1.07;;;1.07;;
38023;SDS011;23834;48.080;11.682;2022-09-09T05:16:46;0.73;;;0.73;;
38023;SDS011;23834;48.080;11.682;2022-09-09T05:19:12;1.00;;;0.90;;
38023;SDS011;23834;48.080;11.682;2022-09-09T05:21:37;0.87;;;0.87;;
38023;SDS011;23834;48.080;11.682;2022-09-09T05:24:02;0.70;;;0.70;;
38023;SDS011;23834;48.080;11.682;2022-09-09T05:26:27;0.80;;;0.80;;
38023;SDS011;23834;48.080;11.682;2022-09-09T05:28:54;0.90;;;0.90;;
38023;SDS011;23834;48.080;11.682;2022-09-09T05:31:19;0.80;;;0.80;;
38023;SDS011;23834;48.080;11.682;2022-09-09T05:33:45;0.97;;;0.90;;
38023;SDS011;23834;48.080;11.682;2022-09-09T05:36:12;1.23;;;0.70;;
38023;SDS011;23834;48.080;11.682;2022-09-09T05:38:41;0.90;;;0.70;;
38023;SDS011;23834;48.080;11.682;2022-09-09T05:41:06;0.80;;;0.80;;
38023;SDS011;23834;48.080;11.682;2022-09-09T05:43:32;0.80;;;0.80;;
38023;SDS011;23834;48.080;11.682;2022-09-09T05:46:08;0.73;;;0.70;;
38023;SDS011;23834;48.080;11.682;2022-09-09T05:48:34;0.80;;;0.80;;
38023;SDS011;23834;48.080;11.682;2022-09-09T05:51:00;0.70;;;0.70;;
38023;SDS011;23834;48.080;11.682;2022-09-09T05:53:25;0.80;;;0.80;;
38023;SDS011;23834;48.080;11.682;2022-09-09T05:55:58;0.73;;;0.70;;
38023;SDS011;23834;48.080;11.682;2022-09-09T05:58:23;0.80;;;0.80;;
38023;SDS011;23834;48.080;11.682;2022-09-09T06:00:49;0.70;;;0.70;;
38023;SDS011;23834;48.080;11.682;2022-09-09T06:03:14;1.20;;;1.00;;
38023;SDS011;23834;48.080;11.682;2022-09-09T06:05:41;0.87;;;0.87;;
38023;SDS011;23834;48.080;11.682;2022-09-09T06:08:07;0.90;;;0.90;;
38023;SDS011;23834;48.080;11.682;2022-09-09T06:10:32;1.27;;;0.80;;
38023;SDS011;23834;48.080;11.682;2022-09-09T06:12:59;1.00;;;1.00;;
38023;SDS011;23834;48.080;11.682;2022-09-09T06:15:24;0.90;;;0.90;;
38023;SDS011;23834;48.080;11.682;2022-09-09T06:17:53;0.70;;;0.70;;
38023;SDS011;23834;48.080;11.682;2022-09-09T06:20:19;0.73;;;0.73;;
38023;SDS011;23834;48.080;11.682;2022-09-09T06:22:45;1.10;;;1.00;;
38023;SDS011;23834;48.080;11.682;2022-09-09T06:25:11;0.97;;;0.97;;
38023;SDS011;23834;48.080;11.682;2022-09-09T06:27:37;0.70;;;0.70;;
38023;SDS011;23834;48.080;11.682;2022-09-09T06:30:02;0.90;;;0.90;;
38023;SDS011;23834;48.080;11.682;2022-09-09T06:32:28;1.00;;;0.90;;
38023;SDS011;23834;48.080;11.682;2022-09-09T06:34:53;1.37;;;1.00;;
38023;SDS011;23834;48.080;11.682;2022-09-09T06:37:19;0.70;;;0.70;;
38023;SDS011;23834;48.080;11.682;2022-09-09T06:39:44;1.10;;;1.00;;
38023;SDS011;23834;48.080;11.682;2022-09-09T06:42:09;1.00;;;1.00;;
38023;SDS011;23834;48.080;11.682;2022-09-09T06:44:35;1.17;;;1.00;;
38023;SDS011;23834;48.080;11.682;2022-09-09T06:47:00;1.10;;;0.87;;
38023;SDS011;23834;48.080;11.682;2022-09-09T06:49:25;1.27;;;1.20;;
38023;SDS011;23834;48.080;11.682;2022-09-09T06:51:50;1.90;;;0.90;;
38023;SDS011;23834;48.080;11.682;2022-09-09T06:54:17;1.43;;;1.13;;
38023;SDS011;23834;48.080;11.682;2022-09-09T06:56:42;0.87;;;0.87;;
38023;SDS011;23834;48.080;11.682;2022-09-09T06:59:08;0.90;;;0.90;;
38023;SDS011;23834;48.080;11.682;2022-09-09T07:01:37;1.20;;;0.80;;
38023;SDS011;23834;48.080;11.682;2022-09-09T07:04:03;0.70;;;0.70;;
38023;SDS011;23834;48.080;11.682;2022-09-09T07:06:42;1.17;;;1.07;;
38023;SDS011;23834;48.080;11.682;2022-09-09T07:09:09;0.90;;;0.60;;
38023;SDS011;23834;48.080;11.682;2022-09-09T07:11:37;0.80;;;0.80;;
38023;SDS011;23834;48.080;11.682;2022-09-09T07:14:02;1.03;;;0.90;;
38023;SDS011;23834;48.080;11.682;2022-09-09T07:16:27;1.20;;;1.10;;
38023;SDS011;23834;48.080;11.682;2022-09-09T07:18:54;1.00;;;1.00;;
38023;SDS011;23834;48.080;11.682;2022-09-09T07:21:25;0.70;;;0.70;;
38023;SDS011;23834;48.080;11.682;2022-09-09T07:23:51;1.00;;;0.90;;
38023;SDS011;23834;48.080;11.682;2022-09-09T07:26:17;0.80;;;0.80;;
38023;SDS011;23834;48.080;11.682;2022-09-09T07:28:44;1.60;;;0.80;;
38023;SDS011;23834;48.080;11.682;2022-09-09T07:31:12;1.47;;;0.80;;
38023;SDS011;23834;48.080;11.682;2022-09-09T07:33:38;0.80;;;0.80;;
38023;SDS011;23834;48.080;11.682;2022-09-09T07:36:09;1.10;;;1.10;;
38023;SDS011;23834;48.080;11.682;2022-09-09T07:38:45;1.17;;;0.70;;
38023;SDS011;23834;48.080;11.682;2022-09-09T07:41:15;0.83;;;0.83;;
38023;SDS011;23834;48.080;11.682;2022-09-09T07:43:42;0.90;;;0.90;;
38023;SDS011;23834;48.080;11.682;2022-09-09T07:46:08;0.80;;;0.80;;
38023;SDS011;23834;48.080;11.682;2022-09-09T07:48:34;1.30;;;0.90;;
38023;SDS011;23834;48.080;11.682;2022-09-09T07:51:09;0.87;;;0.87;;
38023;SDS011;23834;48.080;11.682;2022-09-09T07:53:37;1.23;;;1.10;;
38023;SDS011;23834;48.080;11.682;2022-09-09T07:56:04;1.20;;;1.03;;
38023;SDS011;23834;48.080;11.682;2022-09-09T07:58:30;0.90;;;0.90;;
38023;SDS011;23834;48.080;11.682;2022-09-09T08:00:55;2.33;;;0.80;;
38023;SDS011;23834;48.080;11.682;2022-09-09T08:03:20;1.00;;;0.80;;
38023;SDS011;23834;48.080;11.682;2022-09-09T08:05:47;0.80;;;0.80;;
38023;SDS011;23834;48.080;11.682;2022-09-09T08:08:12;1.00;;;1.00;;
38023;SDS011;23834;48.080;11.682;2022-09-09T08:10:37;0.70;;;0.70;;
38023;SDS011;23834;48.080;11.682;2022-09-09T08:13:02;1.20;;;0.83;;
38023;SDS011;23834;48.080;11.682;2022-09-09T08:15:27;0.80;;;0.80;;
38023;SDS011;23834;48.080;11.682;2022-09-09T08:17:53;1.70;;;0.90;;
38023;SDS011;23834;48.080;11.682;2022-09-09T08:20:18;1.13;;;0.80;;
38023;SDS011;23834;48.080;11.682;2022-09-09T08:22:43;1.17;;;1.07;;
38023;SDS011;23834;48.080;11.682;2022-09-09T08:25:09;0.90;;;0.73;;
38023;SDS011;23834;48.080;11.682;2022-09-09T08:27:35;0.83;;;0.83;;
38023;SDS011;23834;48.080;11.682;2022-09-09T08:30:00;0.80;;;0.70;;
38023;SDS011;23834;48.080;11.682;2022-09-09T08:32:25;0.97;;;0.67;;
38023;SDS011;23834;48.080;11.682;2022-09-09T08:34:51;1.03;;;0.90;;
38023;SDS011;23834;48.080;11.682;2022-09-09T08:37:16;1.00;;;0.80;;
38023;SDS011;23834;48.080;11.682;2022-09-09T08:39:41;0.67;;;0.67;;
38023;SDS011;23834;48.080;11.682;2022-09-09T08:54:48;0.87;;;0.80;;
38023;SDS011;23834;48.080;11.682;2022-09-09T08:57:16;1.00;;;0.90;;
38023;SDS011;23834;48.080;11.682;2022-09-09T08:59:42;0.83;;;0.80;;
38023;SDS011;23834;48.080;11.682;2022-09-09T09:04:54;1.50;;;0.67;;
38023;SDS011;23834;48.080;11.682;2022-09-09T09:08:07;0.70;;;0.70;;
38023;SDS011;23834;48.080;11.682;2022-09-09T09:10:15;1.33;;;0.90;;
38023;SDS011;23834;48.080;11.682;2022-09-09T09:12:46;0.80;;;0.60;;
38023;SDS011;23834;48.080;11.682;2022-09-09T09:15:24;0.80;;;0.80;;
38023;SDS011;23834;48.080;11.682;2022-09-09T09:17:50;1.00;;;1.00;;
38023;SDS011;23834;48.080;11.682;2022-09-09T09:20:16;1.27;;;0.70;;
38023;SDS011;23834;48.080;11.682;2022-09-09T09:22:49;0.80;;;0.80;;
38023;SDS011;23834;48.080;11.682;2022-09-09T09:25:19;0.73;;;0.73;;
38023;SDS011;23834;48.080;11.682;2022-09-09T09:28:02;1.00;;;0.87;;
38023;SDS011;23834;48.080;11.682;2022-09-09T09:36:09;0.70;;;0.70;;
38023;SDS011;23834;48.080;11.682;2022-09-09T09:38:34;0.80;;;0.80;;
38023;SDS011;23834;48.080;11.682;2022-09-09T09:41:00;0.70;;;0.70;;
38023;SDS011;23834;48.080;11.682;2022-09-09T09:43:26;0.70;;;0.70;;
38023;SDS011;23834;48.080;11.682;2022-09-09T09:45:52;1.10;;;0.70;;
38023;SDS011;23834;48.080;11.682;2022-09-09T09:48:17;1.00;;;1.00;;
38023;SDS011;23834;48.080;11.682;2022-09-09T09:51:25;0.80;;;0.80;;
38023;SDS011;23834;48.080;11.682;2022-09-09T09:53:32;0.70;;;0.70;;
38023;SDS011;23834;48.080;11.682;2022-09-09T09:56:02;0.73;;;0.73;;
38023;SDS011;23834;48.080;11.682;2022-09-09T09:58:32;0.83;;;0.70;;
38023;SDS011;23834;48.080;11.682;2022-09-09T10:00:59;0.80;;;0.80;;
38023;SDS011;23834;48.080;11.682;2022-09-09T10:03:28;1.13;;;0.70;;
38023;SDS011;23834;48.080;11.682;2022-09-09T10:05:54;0.87;;;0.87;;
38023;SDS011;23834;48.080;11.682;2022-09-09T10:08:21;0.70;;;0.70;;
38023;SDS011;23834;48.080;11.682;2022-09-09T10:10:59;0.70;;;0.70;;
38023;SDS011;23834;48.080;11.682;2022-09-09T10:13:29;0.80;;;0.80;;
38023;SDS011;23834;48.080;11.682;2022-09-09T10:29:35;0.97;;;0.90;;
38023;SDS011;23834;48.080;11.682;2022-09-09T10:39:50;0.70;;;0.70;;
38023;SDS011;23834;48.080;11.682;2022-09-09T10:42:23;0.63;;;0.63;;
38023;SDS011;23834;48.080;11.682;2022-09-09T10:45:06;0.70;;;0.70;;
38023;SDS011;23834;48.080;11.682;2022-09-09T10:50:33;0.70;;;0.70;;
38023;SDS011;23834;48.080;11.682;2022-09-09T10:55:33;1.35;;;0.70;;
38023;SDS011;23834;48.080;11.682;2022-09-09T10:58:01;1.43;;;0.70;;
38023;SDS011;23834;48.080;11.682;2022-09-09T11:00:34;0.90;;;0.50;;
38023;SDS011;23834;48.080;11.682;2022-09-09T11:03:03;1.37;;;0.67;;
38023;SDS011;23834;48.080;11.682;2022-09-09T11:05:45;0.80;;;0.80;;
38023;SDS011;23834;48.080;11.682;2022-09-09T11:08:13;0.90;;;0.90;;
38023;SDS011;23834;48.080;11.682;2022-09-09T11:13:09;0.63;;;0.63;;
38023;SDS011;23834;48.080;11.682;2022-09-09T11:15:37;1.03;;;0.70;;
38023;SDS011;23834;48.080;11.682;2022-09-09T11:18:03;0.93;;;0.93;;
38023;SDS011;23834;48.080;11.682;2022-09-09T11:20:29;1.73;;;0.60;;
38023;SDS011;23834;48.080;11.682;2022-09-09T11:22:59;0.73;;;0.73;;
38023;SDS011;23834;48.080;11.682;2022-09-09T11:25:26;0.80;;;0.70;;
38023;SDS011;23834;48.080;11.682;2022-09-09T11:28:16;1.13;;;1.03;;
38023;SDS011;23834;48.080;11.682;2022-09-09T11:36:08;0.80;;;0.60;;
38023;SDS011;23834;48.080;11.682;2022-09-09T11:38:44;0.70;;;0.63;;
38023;SDS011;23834;48.080;11.682;2022-09-09T11:41:10;0.67;;;0.67;;
38023;SDS011;23834;48.080;11.682;2022-09-09T11:43:40;0.60;;;0.60;;
38023;SDS011;23834;48.080;11.682;2022-09-09T11:46:06;1.07;;;0.70;;
38023;SDS011;23834;48.080;11.682;2022-09-09T11:48:33;0.87;;;0.70;;
38023;SDS011;23834;48.080;11.682;2022-09-09T11:51:04;0.70;;;0.67;;
38023;SDS011;23834;48.080;11.682;2022-09-09T11:53:30;0.73;;;0.73;;
38023;SDS011;23834;48.080;11.682;2022-09-09T11:56:22;0.77;;;0.77;;
38023;SDS011;23834;48.080;11.682;2022-09-09T11:58:53;0.70;;;0.60;;
38023;SDS011;23834;48.080;11.682;2022-09-09T12:01:27;0.60;;;0.60;;
38023;SDS011;23834;48.080;11.682;2022-09-09T12:03:55;0.70;;;0.70;;
38023;SDS011;23834;48.080;11.682;2022-09-09T12:06:30;0.70;;;0.60;;
38023;SDS011;23834;48.080;11.682;2022-09-09T12:09:06;0.50;;;0.50;;
38023;SDS011;23834;48.080;11.682;2022-09-09T12:11:32;1.67;;;0.60;;
38023;SDS011;23834;48.080;11.682;2022-09-09T12:13:58;0.70;;;0.70;;
38023;SDS011;23834;48.080;11.682;2022-09-09T12:16:29;0.93;;;0.60;;
38023;SDS011;23834;48.080;11.682;2022-09-09T12:19:03;1.03;;;0.60;;
38023;SDS011;23834;48.080;11.682;2022-09-09T12:21:40;0.60;;;0.60;;
38023;SDS011;23834;48.080;11.682;2022-09-09T12:24:09;0.60;;;0.60;;
38023;SDS011;23834;48.080;11.682;2022-09-09T12:26:41;0.80;;;0.80;;
38023;SDS011;23834;48.080;11.682;2022-09-09T12:36:44;0.60;;;0.60;;
38023;SDS011;23834;48.080;11.682;2022-09-09T12:39:15;0.70;;;0.70;;
38023;SDS011;23834;48.080;11.682;2022-09-09T12:41:50;0.63;;;0.60;;
38023;SDS011;23834;48.080;11.682;2022-09-09T12:44:15;0.60;;;0.60;;
38023;SDS011;23834;48.080;11.682;2022-09-09T12:46:41;0.60;;;0.60;;
38023;SDS011;23834;48.080;11.682;2022-09-09T12:51:51;0.60;;;0.60;;
38023;SDS011;23834;48.080;11.682;2022-09-09T12:54:17;0.70;;;0.50;;
38023;SDS011;23834;48.080;11.682;2022-09-09T12:56:45;0.60;;;0.60;;
38023;SDS011;23834;48.080;11.682;2022-09-09T12:59:17;0.50;;;0.50;;
38023;SDS011;23834;48.080;11.682;2022-09-09T13:01:46;0.50;;;0.50;;
38023;SDS011;23834;48.080;11.682;2022-09-09T13:04:19;0.50;;;0.50;;
38023;SDS011;23834;48.080;11.682;2022-09-09T13:06:45;0.50;;;0.50;;
38023;SDS011;23834;48.080;11.682;2022-09-09T13:09:10;0.50;;;0.50;;
38023;SDS011;23834;48.080;11.682;2022-09-09T13:11:36;0.70;;;0.67;;
38023;SDS011;23834;48.080;11.682;2022-09-09T13:14:03;0.50;;;0.50;;
38023;SDS011;23834;48.080;11.682;2022-09-09T13:16:29;0.80;;;0.60;;
38023;SDS011;23834;48.080;11.682;2022-09-09T13:18:58;0.50;;;0.50;;
38023;SDS011;23834;48.080;11.682;2022-09-09T13:21:34;1.00;;;0.90;;
38023;SDS011;23834;48.080;11.682;2022-09-09T13:23:59;0.60;;;0.60;;
38023;SDS011;23834;48.080;11.682;2022-09-09T13:26:28;0.50;;;0.40;;
38023;SDS011;23834;48.080;11.682;2022-09-09T13:28:54;0.70;;;0.70;;
38023;SDS011;23834;48.080;11.682;2022-09-09T13:31:30;0.60;;;0.50;;
38023;SDS011;23834;48.080;11.682;2022-09-09T13:33:57;0.67;;;0.63;;
38023;SDS011;23834;48.080;11.682;2022-09-09T13:36:29;0.50;;;0.50;;
38023;SDS011;23834;48.080;11.682;2022-09-09T13:38:56;0.70;;;0.50;;
38023;SDS011;23834;48.080;11.682;2022-09-09T13:41:22;0.67;;;0.67;;
38023;SDS011;23834;48.080;11.682;2022-09-09T13:43:48;0.60;;;0.57;;
38023;SDS011;23834;48.080;11.682;2022-09-09T13:48:58;0.50;;;0.50;;
38023;SDS011;23834;48.080;11.682;2022-09-09T13:51:34;0.50;;;0.50;;
38023;SDS011;23834;48.080;11.682;2022-09-09T13:54:00;0.60;;;0.50;;
38023;SDS011;23834;48.080;11.682;2022-09-09T13:56:25;0.60;;;0.50;;
38023;SDS011;23834;48.080;11.682;2022-09-09T13:58:51;0.70;;;0.60;;
38023;SDS011;23834;48.080;11.682;2022-09-09T14:01:16;0.70;;;0.60;;
38023;SDS011;23834;48.080;11.682;2022-09-09T14:03:41;0.60;;;0.47;;
38023;SDS011;23834;48.080;11.682;2022-09-09T14:06:07;0.70;;;0.60;;
38023;SDS011;23834;48.080;11.682;2022-09-09T14:08:32;0.60;;;0.60;;
38023;SDS011;23834;48.080;11.682;2022-09-09T14:11:02;0.40;;;0.40;;
38023;SDS011;23834;48.080;11.682;2022-09-09T14:13:27;0.50;;;0.40;;
38023;SDS011;23834;48.080;11.682;2022-09-09T14:15:52;0.47;;;0.43;;
38023;SDS011;23834;48.080;11.682;2022-09-09T14:18:18;0.60;;;0.60;;
38023;SDS011;23834;48.080;11.682;2022-09-09T14:20:44;1.07;;;0.50;;
38023;SDS011;23834;48.080;11.682;2022-09-09T14:23:10;0.60;;;0.50;;
38023;SDS011;23834;48.080;11.682;2022-09-09T14:25:35;0.70;;;0.70;;
38023;SDS011;23834;48.080;11.682;2022-09-09T14:28:01;0.53;;;0.53;;
38023;SDS011;23834;48.080;11.682;2022-09-09T14:30:27;0.90;;;0.50;;
38023;SDS011;23834;48.080;11.682;2022-09-09T14:32:52;0.40;;;0.40;;
38023;SDS011;23834;48.080;11.682;2022-09-09T14:35:17;0.60;;;0.53;;
38023;SDS011;23834;48.080;11.682;2022-09-09T14:37:43;0.47;;;0.47;;
38023;SDS011;23834;48.080;11.682;2022-09-09T14:40:09;0.50;;;0.50;;
38023;SDS011;23834;48.080;11.682;2022-09-09T14:42:36;0.50;;;0.50;;
38023;SDS011;23834;48.080;11.682;2022-09-09T14:45:01;0.90;;;0.60;;
38023;SDS011;23834;48.080;11.682;2022-09-09T14:47:26;0.50;;;0.40;;
38023;SDS011;23834;48.080;11.682;2022-09-09T14:49:52;0.50;;;0.50;;
38023;SDS011;23834;48.080;11.682;2022-09-09T14:52:17;0.50;;;0.40;;
38023;SDS011;23834;48.080;11.682;2022-09-09T14:54:42;0.60;;;0.40;;
38023;SDS011;23834;48.080;11.682;2022-09-09T14:57:08;0.60;;;0.60;;
38023;SDS011;23834;48.080;11.682;2022-09-09T14:59:33;0.50;;;0.50;;
38023;SDS011;23834;48.080;11.682;2022-09-09T15:01:59;0.50;;;0.40;;
38023;SDS011;23834;48.080;11.682;2022-09-09T15:04:28;0.50;;;0.50;;
38023;SDS011;23834;48.080;11.682;2022-09-09T15:06:54;0.57;;;0.57;;
38023;SDS011;23834;48.080;11.682;2022-09-09T15:09:19;1.00;;;0.50;;
38023;SDS011;23834;48.080;11.682;2022-09-09T15:11:44;0.50;;;0.50;;
38023;SDS011;23834;48.080;11.682;2022-09-09T15:14:10;0.40;;;0.40;;
38023;SDS011;23834;48.080;11.682;2022-09-09T15:16:37;0.50;;;0.50;;
38023;SDS011;23834;48.080;11.682;2022-09-09T15:19:03;0.50;;;0.43;;
38023;SDS011;23834;48.080;11.682;2022-09-09T15:21:32;0.70;;;0.70;;
38023;SDS011;23834;48.080;11.682;2022-09-09T15:23:58;0.60;;;0.60;;
38023;SDS011;23834;48.080;11.682;2022-09-09T15:26:24;0.67;;;0.40;;
38023;SDS011;23834;48.080;11.682;2022-09-09T15:28:49;0.50;;;0.50;;
38023;SDS011;23834;48.080;11.682;2022-09-09T15:33:46;0.50;;;0.50;;
38023;SDS011;23834;48.080;11.682;2022-09-09T15:36:18;0.50;;;0.50;;
38023;SDS011;23834;48.080;11.682;2022-09-09T15:38:44;0.70;;;0.50;;
38023;SDS011;23834;48.080;11.682;2022-09-09T15:41:09;0.40;;;0.40;;
38023;SDS011;23834;48.080;11.682;2022-09-09T15:43:35;0.90;;;0.50;;
38023;SDS011;23834;48.080;11.682;2022-09-09T15:46:02;0.50;;;0.40;;
38023;SDS011;23834;48.080;11.682;2022-09-09T15:48:31;0.50;;;0.47;;
38023;SDS011;23834;48.080;11.682;2022-09-09T15:51:01;0.50;;;0.40;;
38023;SDS011;23834;48.080;11.682;2022-09-09T15:53:27;0.80;;;0.50;;
38023;SDS011;23834;48.080;11.682;2022-09-09T15:55:54;0.50;;;0.50;;
38023;SDS011;23834;48.080;11.682;2022-09-09T15:58:20;1.07;;;0.50;;
38023;SDS011;23834;48.080;11.682;2022-09-09T16:00:45;0.50;;;0.40;;
38023;SDS011;23834;48.080;11.682;2022-09-09T16:03:10;0.50;;;0.50;;
38023;SDS011;23834;48.080;11.682;2022-09-09T16:05:37;0.60;;;0.40;;
38023;SDS011;23834;48.080;11.682;2022-09-09T16:08:02;0.50;;;0.30;;
38023;SDS011;23834;48.080;11.682;2022-09-09T16:10:28;0.80;;;0.60;;
38023;SDS011;23834;48.080;11.682;2022-09-09T16:12:55;0.50;;;0.40;;
38023;SDS011;23834;48.080;11.682;2022-09-09T16:15:20;0.50;;;0.47;;
38023;SDS011;23834;48.080;11.682;2022-09-09T16:17:48;0.60;;;0.60;;
38023;SDS011;23834;48.080;11.682;2022-09-09T16:20:13;0.80;;;0.60;;
38023;SDS011;23834;48.080;11.682;2022-09-09T16:22:39;0.60;;;0.40;;
38023;SDS011;23834;48.080;11.682;2022-09-09T16:25:05;0.50;;;0.50;;